ADDS METAR Data INFO
IDs: Format: Raw Decoded Include TAF

Data at: 0356 UTC 19 Jul 2018

KCAR 190354Z AUTO 00000KT 10SM CLR 12/08 A2993 RMK AO2 SLP139 T01170083
KCAR 190254Z AUTO 32005KT 10SM CLR 14/08 A2993 RMK AO2 SLP138 T01390078 51015
KCAR 190154Z AUTO 33005KT 10SM CLR 15/08 A2992 RMK AO2 SLP136 T01500078
KCAR 190054Z AUTO 33006KT 10SM CLR 16/08 A2991 RMK AO2 SLP131 T01560078
KCAR 182354Z AUTO 32005KT 10SM CLR 18/08 A2988 RMK AO2 SLP122 T01780078 10233 20178 53016
KCAR 182254Z AUTO 32006KT 10SM CLR 21/07 A2987 RMK AO2 SLP115 T02060067
KCAR 182154Z AUTO 33007KT 10SM CLR 22/07 A2985 RMK AO2 SLP108 T02170067
KCAR 182054Z AUTO 31010G15KT 10SM CLR 23/06 A2983 RMK AO2 SLP105 T02280056 53008
KCAR 181954Z AUTO 31006G18KT 10SM CLR 23/06 A2983 RMK AO2 SLP101 T02280056
KCAR 181854Z AUTO 31008KT 10SM SCT060 23/08 A2982 RMK AO2 SLP098 T02330083
KCAR 181754Z AUTO 30008KT 250V320 10SM CLR 22/07 A2981 RMK AO2 SLP096 T02220072 10222 20167 53001
KCAR 181654Z AUTO 28007G15KT 240V310 10SM CLR 22/09 A2981 RMK AO2 SLP095 T02220089
KCAR 181554Z AUTO 34007KT 10SM BKN039 21/11 A2981 RMK AO2 SLP094 T02060111
KCAR 181454Z AUTO 35007KT 10SM BKN038 BKN055 20/12 A2981 RMK AO2 SLP095 T02000122 51007
KCAR 181439Z AUTO 32009KT 10SM SCT028 BKN034 BKN055 20/12 A2981 RMK AO2 T02000117
KCAR 181404Z AUTO VRB04KT 10SM BKN026 BKN032 BKN047 19/13 A2981 RMK AO2 T01890128
KCAR 181354Z AUTO 33011G17KT 10SM SCT026 BKN031 BKN048 19/12 A2980 RMK AO2 SLP094 T01890122
KCAR 181344Z AUTO 33008KT 10SM FEW024 SCT029 BKN065 19/12 A2980 RMK AO2 T01890122
KCAR 181254Z AUTO 30006KT 10SM BKN017 BKN024 BKN060 18/13 A2980 RMK AO2 SLP093 T01780133
KCAR 181212Z AUTO 32006KT 10SM OVC015 17/13 A2979 RMK AO2 T01720133
KCAR 181154Z AUTO 32006KT 10SM OVC013 17/13 A2979 RMK AO2 SLP088 60000 70032 T01670133 10200 20161 51027
KCAR 181124Z AUTO 35009KT 10SM OVC016 17/13 A2978 RMK AO2 T01670128
KCAR 181105Z AUTO 35012G19KT 10SM OVC014 17/13 A2977 RMK AO2 T01670133
KCAR 181054Z AUTO 34008KT 10SM OVC015 16/13 A2977 RMK AO2 SLP083 T01610133
KCAR 180954Z AUTO 34009KT 10SM OVC017 17/14 A2975 RMK AO2 SLP075 T01670139
KCAR 180927Z AUTO 33010KT 10SM BKN017 17/14 A2973 RMK AO2 T01670144
KCAR 180854Z AUTO 33009KT 10SM BKN085 17/15 A2971 RMK AO2 SLP061 60000 T01720150 51010
KCAR 180754Z AUTO 32005KT 10SM SCT060 18/16 A2969 RMK AO2 RAE19 SLP057 P0000 T01830161
KCAR 180654Z AUTO 33006KT 10SM -RA FEW060 OVC110 19/17 A2969 RMK AO2 RAB27 SLP053 P0000 T01890172
KCAR 180554Z AUTO VRB04KT 10SM FEW050 BKN060 BKN085 20/18 A2967 RMK AO2 RAB06E26 SLP049 P0000 60004 T02000183 10222 20200 55001
KCAR 180523Z AUTO 32004KT 10SM -RA SCT007 BKN039 OVC065 21/18 A2967 RMK AO2 RAB06 P0000 T02060183
KCAR 180454Z AUTO 25003KT 6SM BR OVC008 21/19 A2966 RMK AO2 RAE17B24E53 CIG 003V011 SLP045 P0001 T02060194 402280183
KCAR 180444Z AUTO 23003KT 6SM -RA BR OVC006 21/19 A2966 RMK AO2 RAE17B24 CIG 003V009 P0001 T02060194
KCAR 180422Z AUTO 00000KT 6SM BR OVC004 21/19 A2967 RMK AO2 RAE17 P0001 T02060194
KCAR 180354Z AUTO 00000KT 6SM -RA BR OVC005 21/19 A2966 RMK AO2 CIG 004V009 SLP045 P0001 T02060194
KCAR 180303Z AUTO 18004KT 8SM -RA OVC009 21/19 A2968 RMK AO2 LTG DSNT S CIG 006V011 P0000 T02110194
KCAR 180254Z AUTO 20004KT 4SM -RA BR OVC010 21/19 A2968 RMK AO2 RAB46 CIG 006V011 SLP050 P0002 60002 T02110194 58007
KCAR 180154Z AUTO 19003KT 10SM SCT010 OVC013 21/19 A2969 RMK AO2 SLP056 T02110194
KCAR 180110Z AUTO 19007KT 10SM BKN011 BKN080 22/19 A2970 RMK AO2 T02170194
KCAR 180101Z AUTO 22003KT 10SM SCT013 BKN019 BKN080 21/19 A2970 RMK AO2 T02110194
KCAR 180054Z AUTO VRB05KT 10SM BKN013 BKN019 BKN080 22/19 A2970 RMK AO2 SLP057 T02170194
KCAR 180039Z AUTO 19005KT 10SM BKN013 BKN019 BKN080 22/19 A2970 RMK AO2 T02170194
KCAR 180017Z AUTO 19006KT 10SM SCT014 BKN024 22/19 A2970 RMK AO2 T02170194
KCAR 172354Z AUTO 19006KT 10SM BKN012 OVC026 22/19 A2970 RMK AO2 SLP058 T02220194 10228 20206 55001
KCAR 172322Z AUTO 19005KT 10SM BKN010 22/20 A2969 RMK AO2 CIG 009V013 T02220200
KCAR 172311Z AUTO 18007KT 10SM BKN009 23/20 A2969 RMK AO2 CIG 008V014 T02280200
KCAR 172254Z AUTO 18005KT 10SM OVC010 23/20 A2969 RMK AO2 SLP055 T02280200
KCAR 172207Z AUTO 17007KT 10SM BKN010 OVC018 22/20 A2970 RMK AO2 CIG 008V013 T02220200
KCAR 172154Z AUTO 19007KT 10SM SCT010 OVC018 22/20 A2970 RMK AO2 SLP058 T02220200
KCAR 172152Z AUTO 18008KT 10SM SCT010 OVC018 22/20 A2970 RMK AO2
KCAR 172140Z AUTO 17007KT 10SM OVC014 22/20 A2970 RMK AO2 T02220200
KCAR 172127Z AUTO 17007KT 10SM FEW010 BKN016 23/20 A2970 RMK AO2 T02280200
KCAR 172120Z AUTO 17008KT 10SM SCT010 BKN014 22/20 A2971 RMK AO2 T02220200
KCAR 172054Z AUTO 16006KT 10SM SCT009 OVC017 22/20 A2971 RMK AO2 SLP063 T02220200 58012
KCAR 172001Z AUTO 17005KT 10SM BKN009 OVC014 22/19 A2973 RMK AO2 CIG 006V012 T02170194
KCAR 171954Z AUTO VRB05KT 10SM SCT007 OVC012 22/19 A2973 RMK AO2 SLP068 T02170194
KCAR 171947Z AUTO 16007KT 10SM SCT007 BKN012 OVC017 22/19 A2973 RMK AO2 T02170194
KCAR 171932Z AUTO 16007KT 10SM SCT008 OVC017 22/19 A2974 RMK AO2 T02170194
KCAR 171923Z AUTO 17007KT 10SM SCT010 OVC017 22/19 A2974 RMK AO2 T02170194
KCAR 171854Z AUTO 18008KT 10SM BKN010 OVC014 22/19 A2975 RMK AO2 CIG 006V013 SLP074 T02170194
KCAR 171754Z AUTO 15009KT 10SM OVC006 21/19 A2975 RMK AO2 RAE54 CIG 005V010 SLP074 P0001 60028 T02060194 10211 20200 57015
KCAR 171654Z AUTO 19007KT 10SM -RA OVC007 21/19 A2977 RMK AO2 RAE12B41 SLP083 P0000 T02060194